M/T Arcadia — SY7849 — position and weather

sailwx.info

Track history (hours):
 
Tides and Currents Weather Stations Pressure Air Temp Water Temp Dewpoint Dewpoint Depression Visibility Wind Speed Wind Dir Waves Ship Positions

M/T Arcadia

Last reported at 2014-Oct-31 10:31 UTC. Time now 2014-Oct-31 12:21 UTC.
Position N 37°55' E 023°06'.

Length 76 m; draft 3.6 m.

Type: Ship. MMSI: 240560000.

Date/timePositionNaut miles runAvg speedWind from/ knotsBaromVisibWave heightAir tempDewpointWater temp
2014-Oct-31 10:31N 37°55' E 023°06'6 6.0
2014-Oct-31 09:33N 37°50' E 023°11'9 8.9
2014-Oct-31 08:33N 37°43' E 023°17'9 8.6
2014-Oct-31 07:33N 37°38' E 023°26'9 9.0
2014-Oct-31 06:31N 37°31' E 023°33'41 8.2
2014-Oct-31 01:32N 36°51' E 023°44'10 8.7
2014-Oct-31 00:24N 36°41' E 023°46'8 9.0
2014-Oct-30 23:33N 36°34' E 023°48'61 1.4
2014-Oct-29 04:33N 35°34' E 024°03'77 7.0
2014-Oct-28 17:31N 36°50' E 023°44'44 8.5
2014-Oct-28 12:23N 37°32' E 023°32'7 8.6
2014-Oct-28 11:33N 37°38' E 023°26'8 7.9
2014-Oct-28 10:33N 37°42' E 023°17'9 8.5
2014-Oct-28 09:33N 37°49' E 023°12'8 0.4
2014-Oct-27 13:31N 37°55' E 023°05'0 0.5
2014-Oct-27 12:28N 37°55' E 023°06'4 0.1
2014-Oct-26 06:32N 37°53' E 023°10'8 8.5
2014-Oct-26 05:33N 37°46' E 023°15'9 8.6
2014-Oct-26 04:33N 37°39' E 023°22'9 9.0
2014-Oct-26 03:33N 37°33' E 023°31'9 6.6
2014-Oct-26 02:08N 37°24' E 023°31'5 9.1
2014-Oct-26 01:32N 37°21' E 023°25'9 9.2
2014-Oct-26 00:32N 37°14' E 023°17'  
2014-Oct-23 13:17N 37°20' E 023°23'5 7.1
2014-Oct-23 12:30N 37°23' E 023°29'13 6.4
2014-Oct-23 10:26N 37°36' E 023°27'8 8.8
2014-Oct-23 09:33N 37°40' E 023°19'9 8.8
2014-Oct-23 08:33N 37°48' E 023°13'9 8.9
2014-Oct-23 07:33N 37°55' E 023°06'0 0.0
2014-Oct-22 16:17N 37°55' E 023°06'0 0.2
2014-Oct-22 14:32N 37°55' E 023°06'0 0.0
2014-Oct-22 13:26N 37°55' E 023°06'0 0.0
2014-Oct-22 12:23N 37°55' E 023°06'0 0.4
2014-Oct-22 11:12N 37°54' E 023°07'6 8.6
2014-Oct-22 10:33N 37°50' E 023°11'9 9.3
2014-Oct-22 09:33N 37°42' E 023°17'9 9.1
2014-Oct-22 08:33N 37°37' E 023°27'49 9.3
2014-Oct-22 03:16N 36°50' E 023°43'10 9.9
2014-Oct-22 02:14N 36°40' E 023°46'7 9.0
2014-Oct-22 01:29N 36°34' E 023°50'31 9.2
2014-Oct-21 22:07N 36°03' E 023°57'7 9.3
2014-Oct-21 21:24N 35°57' E 023°58'  
Track history (hours):
 
Tides and Currents Weather Stations Pressure Air Temp Water Temp Dewpoint Dewpoint Depression Visibility Wind Speed Wind Dir Waves Ship Positions

M/T Arcadia

Last reported at 2014-Oct-31 10:31 UTC. Time now 2014-Oct-31 12:21 UTC.
Position N 37°55' E 023°06'.

Length 76 m; draft 3.6 m.

Type: Ship. MMSI: 240560000.

Date/timePositionNaut miles runAvg speedWind from/ knotsBaromVisibWave heightAir tempDewpointWater temp
2014-Oct-31 10:31N 37°55' E 023°06'6 6.0
2014-Oct-31 09:33N 37°50' E 023°11'9 8.9
2014-Oct-31 08:33N 37°43' E 023°17'9 8.6
2014-Oct-31 07:33N 37°38' E 023°26'9 9.0
2014-Oct-31 06:31N 37°31' E 023°33'41 8.2
2014-Oct-31 01:32N 36°51' E 023°44'10 8.7
2014-Oct-31 00:24N 36°41' E 023°46'8 9.0
2014-Oct-30 23:33N 36°34' E 023°48'61 1.4
2014-Oct-29 04:33N 35°34' E 024°03'77 7.0
2014-Oct-28 17:31N 36°50' E 023°44'44 8.5
2014-Oct-28 12:23N 37°32' E 023°32'7 8.6
2014-Oct-28 11:33N 37°38' E 023°26'8 7.9
2014-Oct-28 10:33N 37°42' E 023°17'9 8.5
2014-Oct-28 09:33N 37°49' E 023°12'8 0.4
2014-Oct-27 13:31N 37°55' E 023°05'0 0.5
2014-Oct-27 12:28N 37°55' E 023°06'4 0.1
2014-Oct-26 06:32N 37°53' E 023°10'8 8.5
2014-Oct-26 05:33N 37°46' E 023°15'9 8.6
2014-Oct-26 04:33N 37°39' E 023°22'9 9.0
2014-Oct-26 03:33N 37°33' E 023°31'9 6.6
2014-Oct-26 02:08N 37°24' E 023°31'5 9.1
2014-Oct-26 01:32N 37°21' E 023°25'9 9.2
2014-Oct-26 00:32N 37°14' E 023°17'  
2014-Oct-23 13:17N 37°20' E 023°23'5 7.1
2014-Oct-23 12:30N 37°23' E 023°29'13 6.4
2014-Oct-23 10:26N 37°36' E 023°27'8 8.8
2014-Oct-23 09:33N 37°40' E 023°19'9 8.8
2014-Oct-23 08:33N 37°48' E 023°13'9 8.9
2014-Oct-23 07:33N 37°55' E 023°06'0 0.0
2014-Oct-22 16:17N 37°55' E 023°06'0 0.2
2014-Oct-22 14:32N 37°55' E 023°06'0 0.0
2014-Oct-22 13:26N 37°55' E 023°06'0 0.0
2014-Oct-22 12:23N 37°55' E 023°06'0 0.4
2014-Oct-22 11:12N 37°54' E 023°07'6 8.6
2014-Oct-22 10:33N 37°50' E 023°11'9 9.3
2014-Oct-22 09:33N 37°42' E 023°17'9 9.1
2014-Oct-22 08:33N 37°37' E 023°27'49 9.3
2014-Oct-22 03:16N 36°50' E 023°43'10 9.9
2014-Oct-22 02:14N 36°40' E 023°46'7 9.0
2014-Oct-22 01:29N 36°34' E 023°50'31 9.2
2014-Oct-21 22:07N 36°03' E 023°57'7 9.3
2014-Oct-21 21:24N 35°57' E 023°58'  

Dump ship's entire track history